createdAt,value
2023-01-25T00:06:33.499Z,20.03
2023-01-25T00:16:39.978Z,16.67
2023-01-25T00:26:44.630Z,18.33
2023-01-25T00:36:46.624Z,17.97
2023-01-25T00:46:51.209Z,23.17
2023-01-25T00:56:56.703Z,22.87
2023-01-25T01:06:58.972Z,20.77
2023-01-25T01:17:06.177Z,21.57
2023-01-25T01:27:10.959Z,19.80
2023-01-25T01:37:13.135Z,25.53
2023-01-25T01:47:27.166Z,17.80
2023-01-25T01:57:49.476Z,17.93
2023-01-25T02:07:58.751Z,21.80
2023-01-25T02:18:03.821Z,16.83
2023-01-25T02:28:28.694Z,17.27
2023-01-25T02:38:35.500Z,16.10
2023-01-25T02:48:37.900Z,16.80
2023-01-25T02:58:41.112Z,16.33
2023-01-25T03:08:43.516Z,13.90
2023-01-25T03:18:48.148Z,18.00
2023-01-25T03:28:50.909Z,17.20
2023-01-25T03:38:55.365Z,13.47
2023-01-25T03:49:02.425Z,12.73
2023-01-25T03:59:06.817Z,10.83
2023-01-25T04:09:10.175Z,9.50
2023-01-25T04:19:18.451Z,8.93
2023-01-25T04:29:28.766Z,8.87
2023-01-25T04:39:41.915Z,8.27
2023-01-25T04:49:46.793Z,11.87
2023-01-25T04:59:52.423Z,14.03
2023-01-25T05:09:58.409Z,18.27
2023-01-25T05:20:03.921Z,23.13
2023-01-25T05:30:08.857Z,21.80
2023-01-25T05:40:21.878Z,31.30
2023-01-25T05:50:28.264Z,34.00
2023-01-25T06:00:41.098Z,34.87
2023-01-25T06:10:47.773Z,36.60
2023-01-25T06:20:52.190Z,30.77
2023-01-25T06:31:16.587Z,41.50
2023-01-25T06:41:20.233Z,37.83
2023-01-25T06:51:22.302Z,33.53
2023-01-25T07:01:30.746Z,37.83
2023-01-25T07:11:37.979Z,34.13
2023-01-25T07:21:47.559Z,37.47
2023-01-25T07:31:52.078Z,29.33
2023-01-25T07:41:56.524Z,29.63
2023-01-25T07:52:07.165Z,30.30
2023-01-25T08:02:12.623Z,32.40
2023-01-25T08:12:17.679Z,35.60
2023-01-25T08:22:19.711Z,30.37
2023-01-25T08:32:21.847Z,21.50
2023-01-25T08:42:28.912Z,35.37
2023-01-25T08:52:33.543Z,34.20
2023-01-25T09:02:37.873Z,35.07
2023-01-25T09:12:42.474Z,34.87
2023-01-25T09:22:46.925Z,30.13
2023-01-25T09:32:52.145Z,34.20
2023-01-25T10:06:40.615Z,38.27
2023-01-25T10:16:49.251Z,36.90
2023-01-25T10:26:57.343Z,48.27
2023-01-25T10:37:05.580Z,36.73
2023-01-25T10:47:35.765Z,37.93
2023-01-25T10:57:44.153Z,37.83
2023-01-25T11:07:46.874Z,43.27
2023-01-25T11:18:11.733Z,42.30
2023-01-25T11:28:23.395Z,43.77
2023-01-25T11:38:25.929Z,43.33
2023-01-25T11:48:54.121Z,40.60
2023-01-25T11:59:02.291Z,45.03
2023-01-25T12:09:21.371Z,45.30
2023-01-25T12:19:40.891Z,42.70
2023-01-25T12:29:57.868Z,36.63
2023-01-25T12:40:35.105Z,42.53
2023-01-25T12:50:47.068Z,43.20
2023-01-25T13:01:27.845Z,39.43
2023-01-25T13:11:36.111Z,48.97
2023-01-25T13:21:41.872Z,44.00
2023-01-25T13:31:51.839Z,43.73
2023-01-25T13:42:27.511Z,44.27
2023-01-25T13:52:31.374Z,37.90
2023-01-25T14:02:36.020Z,39.37
2023-01-25T14:12:43.509Z,72.17
2023-01-25T14:22:49.533Z,42.67
2023-01-25T14:33:15.875Z,43.63
2023-01-25T14:43:18.230Z,40.57
2023-01-25T14:53:22.541Z,43.67
2023-01-25T15:03:26.939Z,43.03
2023-01-25T15:13:29.528Z,40.20
2023-01-25T15:23:31.635Z,40.80
2023-01-25T15:33:34.535Z,37.10
2023-01-25T15:43:37.109Z,40.23
2023-01-25T15:53:39.645Z,40.23
2023-01-25T16:03:41.926Z,39.87
2023-01-25T16:13:46.385Z,39.23
2023-01-25T16:23:50.969Z,45.73
2023-01-25T16:33:58.700Z,44.43
2023-01-25T16:44:03.340Z,43.47
2023-01-25T16:54:15.737Z,45.30
2023-01-25T17:04:23.578Z,49.17
2023-01-25T17:14:35.525Z,42.67
2023-01-25T17:24:45.339Z,42.00
2023-01-25T17:34:52.660Z,46.30
2023-01-25T17:44:56.830Z,48.67
2023-01-25T17:55:02.071Z,50.93
2023-01-25T18:05:05.235Z,50.33
2023-01-25T18:15:12.777Z,48.20
2023-01-25T18:25:42.555Z,46.90
2023-01-25T18:35:48.015Z,49.57
2023-01-25T18:46:01.860Z,48.33
2023-01-25T18:56:10.885Z,49.13
2023-01-25T19:06:15.963Z,44.47
2023-01-25T19:16:28.897Z,44.40
2023-01-25T19:26:34.834Z,50.17
2023-01-25T19:36:39.040Z,48.07
2023-01-25T19:46:47.098Z,50.87
2023-01-25T19:56:52.011Z,51.37
2023-01-25T20:06:59.683Z,58.60
2023-01-25T20:17:03.067Z,50.13
2023-01-25T20:27:07.658Z,49.37
2023-01-25T20:37:11.312Z,46.57
2023-01-25T20:47:18.667Z,48.87
2023-01-25T20:57:23.325Z,43.03
2023-01-25T21:07:25.668Z,45.40
2023-01-25T21:17:32.598Z,40.63
2023-01-25T21:27:38.971Z,45.63
2023-01-25T21:37:46.364Z,45.27
2023-01-25T21:47:52.015Z,46.73
2023-01-25T21:57:54.178Z,46.73
2023-01-25T22:08:01.234Z,47.63
2023-01-25T22:18:03.460Z,51.03
2023-01-25T22:28:15.972Z,52.07
2023-01-25T22:38:20.495Z,47.13
2023-01-25T22:48:27.729Z,46.20
2023-01-25T22:58:38.117Z,52.37
2023-01-25T23:08:47.607Z,47.33
2023-01-25T23:18:52.071Z,41.33
2023-01-25T23:28:58.132Z,43.17
2023-01-25T23:39:01.606Z,43.27
2023-01-25T23:49:04.352Z,39.73
2023-01-25T23:59:08.929Z,39.23
